Time;durP1;ratioP1;P1;durP2;ratioP2;P2;SDS_P1;SDS_P2;PMS_P1;PMS_P2;Temp;Humidity;BMP_temperature;BMP_pressure;BME280_temperature;BME280_humidity;BME280_pressure;Samples;Min_cycle;Max_cycle;Signal;HPM_P1;HPM_P2
2021/03/07 00:00:59;;;;;;;9.63;5.33;;;;;;;;;;4971043;28;20175;-78
2021/03/07 00:03:25;;;;;;;7.77;5.47;;;;;;;;;;4971572;28;20425;-75
2021/03/07 00:05:51;;;;;;;6.33;5.77;;;;;;;;;;4970689;28;20499;-76
2021/03/07 00:08:17;;;;;;;8.07;5.30;;;;;;;;;;4953763;28;21386;-74
2021/03/07 00:13:47;;;;;;;6.57;5.57;;;;;;;;;;4971229;28;20212;-74
2021/03/07 00:16:13;;;;;;;7.15;5.68;;;;;;;;;;4969717;28;20218;-74
2021/03/07 00:18:39;;;;;;;8.73;5.40;;;;;;;;;;4971202;28;20214;-75
2021/03/07 00:21:05;;;;;;;5.90;4.53;;;;;;;;;;4970952;28;20182;-76
2021/03/07 00:23:31;;;;;;;8.13;5.85;;;;;;;;;;4970791;28;20177;-75
2021/03/07 00:29:01;;;;;;;5.07;4.55;;;;;;;;;;4970625;28;20454;-73
2021/03/07 00:31:27;;;;;;;6.10;5.20;;;;;;;;;;4970750;28;20688;-75
2021/03/07 00:33:52;;;;;;;5.27;4.77;;;;;;;;;;4970720;28;20248;-75
2021/03/07 00:36:18;;;;;;;6.37;5.10;;;;;;;;;;4970138;28;21147;-74
2021/03/07 00:38:44;;;;;;;6.50;5.63;;;;;;;;;;4953542;28;20452;-78
2021/03/07 00:41:11;;;;;;;6.33;5.20;;;;;;;;;;4970872;28;20532;-73
2021/03/07 00:43:37;;;;;;;9.30;6.65;;;;;;;;;;4970849;28;20478;-76
2021/03/07 00:46:04;;;;;;;9.60;5.93;;;;;;;;;;4970285;28;20893;-78
2021/03/07 00:48:30;;;;;;;6.80;5.55;;;;;;;;;;4970298;28;20222;-76
2021/03/07 00:50:56;;;;;;;7.57;6.10;;;;;;;;;;4970342;28;20179;-75
2021/03/07 00:53:22;;;;;;;8.67;5.90;;;;;;;;;;4970354;28;20516;-73
2021/03/07 00:58:51;;;;;;;9.57;5.53;;;;;;;;;;4970414;28;21266;-76
2021/03/07 01:01:17;;;;;;;8.45;5.78;;;;;;;;;;4970184;28;20202;-76
2021/03/07 01:03:43;;;;;;;7.97;5.93;;;;;;;;;;4971088;28;20206;-73
2021/03/07 01:06:10;;;;;;;8.73;6.10;;;;;;;;;;4978090;28;20443;-74
2021/03/07 01:08:36;;;;;;;8.95;6.35;;;;;;;;;;4972757;28;20173;-76
2021/03/07 01:14:06;;;;;;;9.20;5.93;;;;;;;;;;4969963;28;20713;-74
2021/03/07 01:16:32;;;;;;;8.50;7.28;;;;;;;;;;4969924;28;20170;-76
2021/03/07 01:18:58;;;;;;;8.50;5.00;;;;;;;;;;4970515;28;20206;-74
2021/03/07 01:21:24;;;;;;;8.10;5.78;;;;;;;;;;4969884;28;20581;-74
2021/03/07 01:29:38;;;;;;;6.78;5.78;;;;;;;;;;4969983;28;20231;-73
2021/03/07 01:32:04;;;;;;;5.73;5.00;;;;;;;;;;4969812;28;20171;-74
2021/03/07 01:34:30;;;;;;;7.65;4.72;;;;;;;;;;4969725;28;20454;-75
2021/03/07 01:36:56;;;;;;;13.40;5.93;;;;;;;;;;4969724;28;20201;-74
2021/03/07 01:39:22;;;;;;;8.47;5.80;;;;;;;;;;4969756;28;20472;-74
2021/03/07 01:41:48;;;;;;;6.80;5.80;;;;;;;;;;4969636;28;20425;-77
2021/03/07 01:44:14;;;;;;;10.00;5.23;;;;;;;;;;4969699;28;20447;-76
2021/03/07 01:46:40;;;;;;;7.33;5.43;;;;;;;;;;4969491;28;20488;-76
2021/03/07 01:49:06;;;;;;;6.83;6.10;;;;;;;;;;4969593;28;20434;-75
2021/03/07 01:51:32;;;;;;;6.20;5.60;;;;;;;;;;4969348;28;20422;-76
2021/03/07 01:53:58;;;;;;;6.15;5.07;;;;;;;;;;4969759;28;20169;-76
2021/03/07 01:59:27;;;;;;;8.75;5.78;;;;;;;;;;4969455;28;20239;-74
2021/03/07 02:01:54;;;;;;;7.05;5.00;;;;;;;;;;4969634;28;20638;-74
2021/03/07 02:04:20;;;;;;;8.35;5.50;;;;;;;;;;4969250;28;20179;-73
2021/03/07 02:06:46;;;;;;;8.73;6.00;;;;;;;;;;4969425;28;20276;-75
2021/03/07 02:09:12;;;;;;;5.85;4.97;;;;;;;;;;4969463;28;20437;-73
2021/03/07 02:11:38;;;;;;;6.40;5.37;;;;;;;;;;4969463;28;20651;-75
2021/03/07 02:14:06;;;;;;;9.15;5.65;;;;;;;;;;4969478;28;20435;-77
2021/03/07 02:16:33;;;;;;;9.68;5.60;;;;;;;;;;4969497;28;20542;-77
2021/03/07 02:18:59;;;;;;;7.13;5.65;;;;;;;;;;4969835;28;20546;-78
2021/03/07 02:21:31;;;;;;;6.30;5.20;;;;;;;;;;4969639;28;20257;-75
2021/03/07 02:24:02;;;;;;;6.45;4.82;;;;;;;;;;4969575;28;20172;-74
2021/03/07 02:29:32;;;;;;;6.60;4.93;;;;;;;;;;4969372;28;20272;-77
2021/03/07 02:32:02;;;;;;;6.10;5.55;;;;;;;;;;4969149;28;20319;-75
2021/03/07 02:34:35;;;;;;;8.27;5.43;;;;;;;;;;4969440;28;20179;-76
2021/03/07 02:37:03;;;;;;;9.27;6.20;;;;;;;;;;4969223;28;20175;-75
2021/03/07 02:39:33;;;;;;;9.25;6.28;;;;;;;;;;4971843;28;20173;-74
2021/03/07 02:42:00;;;;;;;6.53;5.93;;;;;;;;;;4972528;28;20174;-76
2021/03/07 02:44:29;;;;;;;6.47;5.63;;;;;;;;;;4972706;28;20227;-76
2021/03/07 02:46:56;;;;;;;6.90;5.55;;;;;;;;;;4955024;28;20224;-77
2021/03/07 02:49:22;;;;;;;6.03;5.38;;;;;;;;;;4972701;28;20177;-75
2021/03/07 02:51:49;;;;;;;7.22;5.78;;;;;;;;;;4972019;28;20252;-74
2021/03/07 02:54:15;;;;;;;6.97;5.65;;;;;;;;;;4972707;28;20811;-74
2021/03/07 02:59:45;;;;;;;6.45;5.28;;;;;;;;;;4972931;28;20171;-77
2021/03/07 03:02:12;;;;;;;7.10;5.50;;;;;;;;;;4971995;28;20262;-78
2021/03/07 03:04:39;;;;;;;6.63;5.38;;;;;;;;;;4972521;28;20531;-75
2021/03/07 03:07:08;;;;;;;7.25;5.90;;;;;;;;;;4971999;28;20216;-76
2021/03/07 03:09:35;;;;;;;7.40;6.40;;;;;;;;;;4972248;28;20668;-76
2021/03/07 03:12:02;;;;;;;7.65;6.50;;;;;;;;;;4971979;28;20177;-73
2021/03/07 03:14:28;;;;;;;9.50;5.55;;;;;;;;;;4972545;28;20171;-76
2021/03/07 03:16:55;;;;;;;6.05;5.43;;;;;;;;;;4972997;28;20260;-75
2021/03/07 03:19:23;;;;;;;6.68;5.95;;;;;;;;;;4972464;28;20512;-73
2021/03/07 03:21:49;;;;;;;7.82;5.85;;;;;;;;;;4972061;28;20255;-76
2021/03/07 03:24:16;;;;;;;6.22;5.45;;;;;;;;;;4972110;28;20184;-75
2021/03/07 03:29:45;;;;;;;7.35;5.07;;;;;;;;;;4972282;28;20222;-74
2021/03/07 03:32:11;;;;;;;8.10;5.60;;;;;;;;;;4971503;28;20176;-76
2021/03/07 03:34:37;;;;;;;6.07;4.75;;;;;;;;;;4971724;28;20586;-76
2021/03/07 03:37:04;;;;;;;8.13;6.15;;;;;;;;;;4971973;28;20620;-77
2021/03/07 03:39:31;;;;;;;7.40;6.57;;;;;;;;;;4972427;28;20566;-74
2021/03/07 03:45:00;;;;;;;8.90;6.45;;;;;;;;;;4971933;28;20243;-75
2021/03/07 03:47:27;;;;;;;7.55;6.15;;;;;;;;;;4971659;28;20564;-76
2021/03/07 03:49:54;;;;;;;7.82;6.28;;;;;;;;;;4971917;28;20170;-75
2021/03/07 03:52:22;;;;;;;8.82;6.10;;;;;;;;;;4973075;28;20649;-78
2021/03/07 04:00:55;;;;;;;7.65;5.97;;;;;;;;;;4973440;28;20254;-74
2021/03/07 04:03:23;;;;;;;7.40;5.70;;;;;;;;;;4973107;28;20590;-78
2021/03/07 04:05:50;;;;;;;9.32;6.28;;;;;;;;;;4972867;28;20176;-74
2021/03/07 04:08:17;;;;;;;6.75;6.05;;;;;;;;;;4973294;28;20240;-79
2021/03/07 04:10:44;;;;;;;13.27;7.35;;;;;;;;;;4973278;28;20471;-78
2021/03/07 04:13:11;;;;;;;8.20;6.10;;;;;;;;;;4972694;28;20203;-75
2021/03/07 04:15:38;;;;;;;9.35;6.07;;;;;;;;;;4972481;28;20177;-73
2021/03/07 04:18:04;;;;;;;8.98;5.47;;;;;;;;;;4972686;28;20235;-73
2021/03/07 04:20:31;;;;;;;7.82;5.50;;;;;;;;;;4972940;28;20173;-73
2021/03/07 04:22:57;;;;;;;6.75;5.55;;;;;;;;;;4972684;28;20252;-74
2021/03/07 04:25:23;;;;;;;6.67;5.60;;;;;;;;;;4972590;28;20746;-74
2021/03/07 04:27:49;;;;;;;7.55;6.00;;;;;;;;;;4972074;28;20578;-74
2021/03/07 04:30:16;;;;;;;7.25;6.55;;;;;;;;;;4972659;28;20205;-77
2021/03/07 04:32:43;;;;;;;8.02;6.18;;;;;;;;;;4972441;28;20205;-75
2021/03/07 04:35:09;;;;;;;9.68;5.55;;;;;;;;;;4971939;28;20243;-76
2021/03/07 04:37:35;;;;;;;12.43;6.53;;;;;;;;;;4972228;28;20542;-76
2021/03/07 04:40:01;;;;;;;6.45;5.80;;;;;;;;;;4972570;28;20173;-73
2021/03/07 04:45:31;;;;;;;9.73;7.13;;;;;;;;;;4971855;28;20641;-72
2021/03/07 04:47:57;;;;;;;8.02;6.32;;;;;;;;;;4972094;28;20689;-73
2021/03/07 04:50:23;;;;;;;6.00;5.03;;;;;;;;;;4972138;28;20226;-73
2021/03/07 04:52:49;;;;;;;7.45;6.28;;;;;;;;;;4972419;28;20172;-74
2021/03/07 04:55:15;;;;;;;6.95;6.22;;;;;;;;;;4971724;28;20164;-74
2021/03/07 05:00:44;;;;;;;7.45;5.80;;;;;;;;;;4971749;28;20258;-75
2021/03/07 05:03:10;;;;;;;10.75;5.60;;;;;;;;;;4972910;28;20289;-74
2021/03/07 05:05:36;;;;;;;8.93;6.53;;;;;;;;;;4973001;28;20244;-75
2021/03/07 05:08:06;;;;;;;8.10;6.35;;;;;;;;;;4972356;28;20969;-77
2021/03/07 05:10:33;;;;;;;9.27;5.70;;;;;;;;;;4973179;28;20172;-74
2021/03/07 05:12:59;;;;;;;6.90;5.55;;;;;;;;;;4973271;28;20180;-75
2021/03/07 05:15:25;;;;;;;7.17;5.73;;;;;;;;;;4973303;28;20169;-77
2021/03/07 05:17:51;;;;;;;7.82;5.53;;;;;;;;;;5402265;23;20508;-74
2021/03/07 05:20:17;;;;;;;6.35;5.75;;;;;;;;;;4974373;28;20253;-76
2021/03/07 05:22:43;;;;;;;8.55;6.80;;;;;;;;;;4972363;28;20545;-74
2021/03/07 05:25:10;;;;;;;8.63;6.67;;;;;;;;;;4961149;28;20179;-77
2021/03/07 05:27:36;;;;;;;6.70;5.93;;;;;;;;;;4977004;28;20477;-75
2021/03/07 05:30:02;;;;;;;9.53;6.13;;;;;;;;;;4978554;28;20188;-77
2021/03/07 05:32:28;;;;;;;9.77;6.45;;;;;;;;;;4971444;28;20449;-77
2021/03/07 05:34:54;;;;;;;8.82;6.57;;;;;;;;;;4970459;28;20638;-76
2021/03/07 05:37:20;;;;;;;10.70;5.50;;;;;;;;;;4971209;28;20256;-74
2021/03/07 05:39:46;;;;;;;6.77;6.03;;;;;;;;;;4970617;28;21052;-76
2021/03/07 05:42:12;;;;;;;9.13;6.57;;;;;;;;;;4971567;28;20471;-74
2021/03/07 05:44:39;;;;;;;7.20;6.40;;;;;;;;;;4978111;28;20650;-73
2021/03/07 05:47:05;;;;;;;6.70;5.65;;;;;;;;;;4978055;28;20479;-75
2021/03/07 05:49:31;;;;;;;8.68;5.70;;;;;;;;;;4975433;28;20204;-77
2021/03/07 05:51:58;;;;;;;6.80;6.10;;;;;;;;;;4971541;28;20208;-74
2021/03/07 05:54:24;;;;;;;10.82;6.00;;;;;;;;;;4974379;28;20660;-77
2021/03/07 05:56:50;;;;;;;8.93;6.20;;;;;;;;;;4976397;28;20188;-75
2021/03/07 05:59:17;;;;;;;8.77;6.32;;;;;;;;;;4978005;28;20225;-75
2021/03/07 06:01:43;;;;;;;10.65;6.28;;;;;;;;;;4975979;28;20186;-74
2021/03/07 06:04:09;;;;;;;11.35;6.90;;;;;;;;;;4975940;28;20198;-75
2021/03/07 06:06:35;;;;;;;11.10;6.30;;;;;;;;;;4976038;28;20673;-74
2021/03/07 06:09:20;;;;;;;10.95;6.13;;;;;;;;;;4976952;28;20564;-78
2021/03/07 06:11:47;;;;;;;7.63;6.30;;;;;;;;;;4978331;28;20240;-76
2021/03/07 06:14:20;;;;;;;9.65;5.90;;;;;;;;;;4978685;28;21659;-78
2021/03/07 06:16:57;;;;;;;8.93;7.22;;;;;;;;;;4975079;28;20185;-76
2021/03/07 06:19:23;;;;;;;14.50;7.07;;;;;;;;;;4956588;28;20230;-78
2021/03/07 06:21:49;;;;;;;8.30;6.05;;;;;;;;;;4975135;28;20187;-79
2021/03/07 06:24:32;;;;;;;10.35;7.15;;;;;;;;;;4973960;28;20179;-77
2021/03/07 06:27:17;;;;;;;7.18;6.47;;;;;;;;;;4974476;28;20603;-78
2021/03/07 06:29:52;;;;;;;7.47;5.78;;;;;;;;;;4973988;28;20244;-75
2021/03/07 06:32:19;;;;;;;8.95;6.35;;;;;;;;;;4975081;28;20524;-76
2021/03/07 06:34:45;;;;;;;9.90;7.20;;;;;;;;;;4973472;28;20266;-72
2021/03/07 06:37:11;;;;;;;7.00;6.30;;;;;;;;;;4974521;28;20210;-77
2021/03/07 06:39:37;;;;;;;6.20;5.60;;;;;;;;;;4973787;28;20195;-73
2021/03/07 06:42:05;;;;;;;9.23;6.43;;;;;;;;;;4974248;28;20517;-76
2021/03/07 06:44:31;;;;;;;9.75;6.93;;;;;;;;;;4973480;28;20176;-74
2021/03/07 06:47:06;;;;;;;7.95;6.28;;;;;;;;;;4975924;28;20205;-76
2021/03/07 06:49:32;;;;;;;10.27;6.97;;;;;;;;;;4974254;28;20188;-78
2021/03/07 06:52:12;;;;;;;8.07;6.28;;;;;;;;;;4973448;28;20518;-73
2021/03/07 06:54:38;;;;;;;10.07;7.35;;;;;;;;;;4973512;28;20265;-75
2021/03/07 06:57:05;;;;;;;9.50;6.55;;;;;;;;;;4974003;28;20526;-74
2021/03/07 06:59:30;;;;;;;9.85;6.38;;;;;;;;;;4973561;28;20510;-74
2021/03/07 07:01:57;;;;;;;7.73;5.97;;;;;;;;;;4973875;28;20223;-73
2021/03/07 07:04:24;;;;;;;7.43;5.68;;;;;;;;;;4974499;28;20519;-75
2021/03/07 07:07:04;;;;;;;9.48;6.72;;;;;;;;;;4973051;28;20245;-74
2021/03/07 07:09:30;;;;;;;9.50;6.15;;;;;;;;;;4972929;28;20185;-73
2021/03/07 07:11:56;;;;;;;7.38;5.93;;;;;;;;;;4973842;28;20258;-72
2021/03/07 07:14:35;;;;;;;9.68;6.30;;;;;;;;;;4973420;28;20189;-74
2021/03/07 07:17:01;;;;;;;8.65;7.15;;;;;;;;;;4973314;28;20171;-74
2021/03/07 07:19:27;;;;;;;8.75;7.22;;;;;;;;;;4973059;28;20589;-74
2021/03/07 07:21:53;;;;;;;9.83;6.17;;;;;;;;;;4972643;28;20176;-74
2021/03/07 07:24:19;;;;;;;7.03;6.35;;;;;;;;;;4973105;28;20856;-73
2021/03/07 07:26:46;;;;;;;7.43;5.83;;;;;;;;;;4973355;28;20285;-73
2021/03/07 07:29:12;;;;;;;9.30;7.53;;;;;;;;;;4973232;28;20472;-73
2021/03/07 07:32:01;;;;;;;8.35;6.40;;;;;;;;;;4973230;28;20724;-76
2021/03/07 07:34:29;;;;;;;10.77;6.28;;;;;;;;;;4962643;28;20191;-74
2021/03/07 07:36:58;;;;;;;7.90;6.65;;;;;;;;;;4975836;28;20209;-75
2021/03/07 07:39:28;;;;;;;9.02;7.68;;;;;;;;;;4981482;28;20234;-75
2021/03/07 07:41:54;;;;;;;10.27;7.30;;;;;;;;;;4979867;28;20252;-75
2021/03/07 07:44:27;;;;;;;9.80;7.38;;;;;;;;;;4980624;28;20214;-74
2021/03/07 07:46:57;;;;;;;9.00;7.95;;;;;;;;;;4977914;28;20348;-77
2021/03/07 07:49:39;;;;;;;10.25;7.65;;;;;;;;;;4969890;28;20202;-78
2021/03/07 07:52:20;;;;;;;12.27;8.68;;;;;;;;;;4970141;28;20189;-76
2021/03/07 07:55:00;;;;;;;12.60;7.00;;;;;;;;;;4952410;28;20239;-75
2021/03/07 07:57:32;;;;;;;9.43;8.38;;;;;;;;;;4970783;28;20187;-74
2021/03/07 07:59:58;;;;;;;11.25;8.38;;;;;;;;;;4971036;28;20658;-75
2021/03/07 08:02:43;;;;;;;9.65;8.32;;;;;;;;;;4970586;28;20219;-74
2021/03/07 08:05:40;;;;;;;10.52;7.30;;;;;;;;;;4970465;28;20279;-74
2021/03/07 08:08:07;;;;;;;8.73;7.93;;;;;;;;;;4979027;28;20305;-75
2021/03/07 08:10:39;;;;;;;11.97;8.00;;;;;;;;;;4967980;28;20454;-74
2021/03/07 08:13:06;;;;;;;8.67;7.53;;;;;;;;;;4970347;28;20451;-77
2021/03/07 08:15:33;;;;;;;13.63;8.37;;;;;;;;;;4954213;28;20550;-73
2021/03/07 08:18:02;;;;;;;8.63;7.00;;;;;;;;;;4972244;28;20469;-76
2021/03/07 08:20:52;;;;;;;8.30;7.37;;;;;;;;;;4969494;28;20565;-75
2021/03/07 08:23:19;;;;;;;8.60;7.10;;;;;;;;;;4957659;28;20465;-73
2021/03/07 08:25:45;;;;;;;9.87;7.90;;;;;;;;;;4970530;28;20438;-73
2021/03/07 08:28:30;;;;;;;9.07;8.17;;;;;;;;;;4954037;28;20504;-73
2021/03/07 08:30:56;;;;;;;10.97;8.10;;;;;;;;;;4971342;28;20418;-74
2021/03/07 08:33:30;;;;;;;10.80;7.50;;;;;;;;;;4972107;28;21305;-73
2021/03/07 08:36:13;;;;;;;8.70;7.60;;;;;;;;;;4970402;28;20774;-74
2021/03/07 08:38:59;;;;;;;9.87;7.63;;;;;;;;;;4972022;28;20435;-74
2021/03/07 08:41:37;;;;;;;10.23;7.43;;;;;;;;;;4972195;28;20509;-74
2021/03/07 08:44:13;;;;;;;9.80;6.97;;;;;;;;;;4972534;28;20439;-73
2021/03/07 08:46:42;;;;;;;9.40;8.07;;;;;;;;;;4972417;28;20447;-74
2021/03/07 08:49:11;;;;;;;8.27;6.83;;;;;;;;;;4978969;28;20464;-73
2021/03/07 08:51:39;;;;;;;9.40;7.40;;;;;;;;;;4978248;28;20476;-75
2021/03/07 08:54:09;;;;;;;10.27;7.53;;;;;;;;;;4969133;28;20544;-73
2021/03/07 08:56:36;;;;;;;8.43;7.50;;;;;;;;;;4968607;28;20441;-76
2021/03/07 08:59:02;;;;;;;8.50;7.20;;;;;;;;;;4969618;28;20446;-74
2021/03/07 09:01:28;;;;;;;8.80;7.70;;;;;;;;;;4969221;28;20964;-78
2021/03/07 09:03:58;;;;;;;9.97;8.03;;;;;;;;;;4968500;28;20636;-74
2021/03/07 09:06:32;;;;;;;8.83;6.83;;;;;;;;;;4968456;28;20450;-74
2021/03/07 09:09:10;;;;;;;7.73;7.03;;;;;;;;;;4969405;28;20446;-75
2021/03/07 09:11:37;;;;;;;8.33;7.43;;;;;;;;;;4968908;28;20446;-74
2021/03/07 09:14:03;;;;;;;10.40;7.37;;;;;;;;;;4970018;28;20719;-79
2021/03/07 09:16:39;;;;;;;10.70;8.77;;;;;;;;;;4968602;28;20464;-78
2021/03/07 09:19:20;;;;;;;7.30;6.60;;;;;;;;;;4967659;28;20481;-77
2021/03/07 09:21:46;;;;;;;12.50;8.50;;;;;;;;;;4968030;28;20536;-77
2021/03/07 09:24:12;;;;;;;11.00;8.83;;;;;;;;;;4967894;28;20450;-77
2021/03/07 09:26:38;;;;;;;9.80;8.50;;;;;;;;;;4968566;28;20439;-75
2021/03/07 09:29:04;;;;;;;9.60;8.70;;;;;;;;;;4978107;28;20454;-76
2021/03/07 09:31:35;;;;;;;9.53;8.47;;;;;;;;;;4978614;28;20433;-76
2021/03/07 09:34:03;;;;;;;9.30;8.30;;;;;;;;;;4977410;28;20452;-77
2021/03/07 09:36:30;;;;;;;9.60;8.70;;;;;;;;;;4977439;28;20445;-76
2021/03/07 09:38:56;;;;;;;11.13;8.00;;;;;;;;;;4977132;28;20475;-74
2021/03/07 09:41:31;;;;;;;10.30;9.30;;;;;;;;;;4960430;28;20952;-77
2021/03/07 09:43:59;;;;;;;10.10;9.10;;;;;;;;;;4975379;28;21370;-73
2021/03/07 09:46:25;;;;;;;10.70;9.60;;;;;;;;;;4975799;28;20478;-76
2021/03/07 09:49:01;;;;;;;8.33;7.53;;;;;;;;;;4979517;28;20524;-76
2021/03/07 09:51:29;;;;;;;9.53;8.53;;;;;;;;;;4983655;28;20603;-76
2021/03/07 09:53:56;;;;;;;8.77;8.07;;;;;;;;;;4975053;28;20446;-77
2021/03/07 09:56:22;;;;;;;9.40;8.57;;;;;;;;;;4972939;28;20480;-75
2021/03/07 09:58:49;;;;;;;10.13;9.13;;;;;;;;;;4972534;28;20529;-76
2021/03/07 10:01:15;;;;;;;9.40;7.87;;;;;;;;;;4973176;28;20443;-75
2021/03/07 10:03:41;;;;;;;9.27;8.47;;;;;;;;;;4972362;28;20445;-75
2021/03/07 10:06:12;;;;;;;9.40;8.60;;;;;;;;;;4971305;28;21113;-76
2021/03/07 10:08:40;;;;;;;9.70;8.80;;;;;;;;;;4973302;28;20492;-77
2021/03/07 10:11:16;;;;;;;10.80;9.90;;;;;;;;;;4975094;28;20527;-76
2021/03/07 10:13:42;;;;;;;10.33;9.20;;;;;;;;;;4979468;28;20461;-77
2021/03/07 10:16:10;;;;;;;10.33;9.43;;;;;;;;;;4980500;28;20488;-76
2021/03/07 10:18:36;;;;;;;10.50;9.60;;;;;;;;;;4982192;28;20652;-78
2021/03/07 10:21:02;;;;;;;10.77;9.63;;;;;;;;;;4979704;28;20493;-74
2021/03/07 10:23:29;;;;;;;11.37;10.37;;;;;;;;;;4973763;28;20453;-75
2021/03/07 10:25:57;;;;;;;9.47;8.57;;;;;;;;;;4976945;28;20456;-76
2021/03/07 10:28:24;;;;;;;10.37;9.47;;;;;;;;;;4976808;28;20508;-76
2021/03/07 10:30:52;;;;;;;9.63;8.80;;;;;;;;;;4972212;28;20820;-78
2021/03/07 10:33:19;;;;;;;10.80;9.80;;;;;;;;;;4958975;28;20453;-75
2021/03/07 10:36:04;;;;;;;10.50;9.33;;;;;;;;;;4972713;28;20830;-76
2021/03/07 10:38:31;;;;;;;11.33;10.27;;;;;;;;;;4976954;28;20474;-76
2021/03/07 10:40:57;;;;;;;9.93;8.93;;;;;;;;;;4975513;28;20422;-76
2021/03/07 10:43:24;;;;;;;10.60;9.70;;;;;;;;;;4977752;28;20434;-75
2021/03/07 10:45:50;;;;;;;10.57;9.57;;;;;;;;;;4950600;28;20450;-76
2021/03/07 10:48:16;;;;;;;10.30;9.40;;;;;;;;;;4971518;28;20572;-76
2021/03/07 10:50:47;;;;;;;11.60;10.50;;;;;;;;;;4971423;28;20491;-77
2021/03/07 10:53:14;;;;;;;10.87;9.77;;;;;;;;;;4971231;28;20442;-74
2021/03/07 10:55:40;;;;;;;10.80;9.90;;;;;;;;;;4972168;28;20525;-78
2021/03/07 10:58:06;;;;;;;14.97;13.47;;;;;;;;;;4972006;28;20496;-76
2021/03/07 11:00:32;;;;;;;9.77;8.90;;;;;;;;;;4972317;28;20430;-75
2021/03/07 11:02:58;;;;;;;11.60;9.90;;;;;;;;;;4972415;28;20792;-76
2021/03/07 11:05:25;;;;;;;10.97;9.80;;;;;;;;;;4972770;28;20493;-76
2021/03/07 11:07:51;;;;;;;13.30;11.33;;;;;;;;;;4965862;28;20510;-75
2021/03/07 11:10:21;;;;;;;11.43;10.43;;;;;;;;;;4970377;28;20458;-75
2021/03/07 11:12:47;;;;;;;9.77;8.87;;;;;;;;;;4971373;28;20442;-74
2021/03/07 11:15:13;;;;;;;10.93;9.73;;;;;;;;;;4971007;28;20472;-75
2021/03/07 11:17:40;;;;;;;10.50;9.50;;;;;;;;;;4971140;28;20454;-74
2021/03/07 11:20:07;;;;;;;12.00;10.90;;;;;;;;;;4970661;28;20482;-74
2021/03/07 11:22:33;;;;;;;12.83;10.90;;;;;;;;;;4972302;28;20958;-77
2021/03/07 11:24:59;;;;;;;10.30;9.50;;;;;;;;;;4962405;28;20438;-76
2021/03/07 11:27:25;;;;;;;10.93;9.93;;;;;;;;;;4971449;28;20597;-75
2021/03/07 11:29:51;;;;;;;11.20;10.20;;;;;;;;;;4970871;28;20438;-76
2021/03/07 11:32:17;;;;;;;12.20;11.10;;;;;;;;;;4956394;28;20469;-78
2021/03/07 11:34:43;;;;;;;12.20;11.20;;;;;;;;;;4973254;28;20458;-75
2021/03/07 11:37:09;;;;;;;11.93;10.83;;;;;;;;;;4973572;28;20484;-75
2021/03/07 11:39:35;;;;;;;11.77;10.67;;;;;;;;;;4963587;28;21730;-76
2021/03/07 11:42:01;;;;;;;10.90;9.90;;;;;;;;;;4970451;28;20442;-75
2021/03/07 11:44:27;;;;;;;13.17;12.07;;;;;;;;;;4972211;28;20442;-75
2021/03/07 11:46:53;;;;;;;11.50;10.60;;;;;;;;;;4971857;28;21020;-75
2021/03/07 11:49:22;;;;;;;11.20;10.30;;;;;;;;;;4970465;28;20462;-76
2021/03/07 11:51:49;;;;;;;11.00;10.10;;;;;;;;;;4970271;28;20446;-76
2021/03/07 11:54:15;;;;;;;11.50;10.50;;;;;;;;;;4969325;28;20967;-75
2021/03/07 11:56:41;;;;;;;11.07;9.90;;;;;;;;;;4973519;28;20767;-77
2021/03/07 11:59:08;;;;;;;10.70;9.70;;;;;;;;;;4974598;28;20427;-78
2021/03/07 12:01:34;;;;;;;12.80;11.60;;;;;;;;;;4974163;28;20431;-76
2021/03/07 12:04:00;;;;;;;11.33;10.43;;;;;;;;;;4973051;28;20924;-75
2021/03/07 12:06:26;;;;;;;11.23;10.20;;;;;;;;;;4974030;28;20429;-76
2021/03/07 12:08:52;;;;;;;11.03;10.10;;;;;;;;;;4973567;28;20482;-76
2021/03/07 12:11:19;;;;;;;10.17;9.30;;;;;;;;;;4972931;28;20446;-74
2021/03/07 12:13:45;;;;;;;11.70;10.70;;;;;;;;;;4974207;28;20486;-76
2021/03/07 12:16:11;;;;;;;10.77;9.87;;;;;;;;;;4973468;28;20841;-78
2021/03/07 12:18:38;;;;;;;10.30;9.40;;;;;;;;;;4974060;28;20492;-75
2021/03/07 12:21:05;;;;;;;10.43;9.53;;;;;;;;;;4973244;28;20530;-74
2021/03/07 12:23:32;;;;;;;11.07;10.07;;;;;;;;;;4974156;28;20470;-76
2021/03/07 12:25:58;;;;;;;11.20;10.17;;;;;;;;;;4974036;28;20929;-75
2021/03/07 12:28:24;;;;;;;9.77;8.90;;;;;;;;;;4973198;28;20486;-76
2021/03/07 12:30:50;;;;;;;10.43;9.53;;;;;;;;;;4973245;28;20525;-75
2021/03/07 12:33:16;;;;;;;11.33;10.23;;;;;;;;;;4956273;28;20454;-75
2021/03/07 12:35:43;;;;;;;10.90;9.90;;;;;;;;;;4972262;28;20445;-76
2021/03/07 12:38:09;;;;;;;12.50;11.47;;;;;;;;;;4973868;28;20489;-76
2021/03/07 12:40:35;;;;;;;14.70;13.40;;;;;;;;;;4973740;28;20971;-77
2021/03/07 12:43:01;;;;;;;10.30;9.43;;;;;;;;;;4972716;28;20446;-74
2021/03/07 12:45:27;;;;;;;9.13;8.40;;;;;;;;;;4973743;28;20468;-76
2021/03/07 12:47:53;;;;;;;9.20;8.50;;;;;;;;;;4961426;28;20482;-77
2021/03/07 12:50:19;;;;;;;10.87;9.97;;;;;;;;;;4976915;28;20454;-76
2021/03/07 12:52:45;;;;;;;10.77;9.67;;;;;;;;;;4979842;28;20475;-77
2021/03/07 12:55:11;;;;;;;9.90;9.10;;;;;;;;;;4980617;28;20430;-77
2021/03/07 12:57:37;;;;;;;10.83;9.93;;;;;;;;;;4981219;28;20438;-75
2021/03/07 13:00:04;;;;;;;9.30;8.40;;;;;;;;;;4980610;28;20433;-76
2021/03/07 13:02:31;;;;;;;10.30;9.47;;;;;;;;;;4977529;28;20458;-77
2021/03/07 13:04:57;;;;;;;9.87;9.17;;;;;;;;;;4974634;28;20418;-75
2021/03/07 13:07:23;;;;;;;11.17;10.17;;;;;;;;;;4976384;28;20469;-76
2021/03/07 13:09:49;;;;;;;10.43;9.63;;;;;;;;;;4974336;28;20917;-77
2021/03/07 13:12:15;;;;;;;12.33;9.40;;;;;;;;;;4973940;28;20488;-77
2021/03/07 13:14:41;;;;;;;10.17;9.27;;;;;;;;;;4973642;28;20529;-77
2021/03/07 13:17:07;;;;;;;10.27;9.23;;;;;;;;;;4974279;28;20430;-77
2021/03/07 13:19:33;;;;;;;10.27;9.40;;;;;;;;;;4956359;28;21036;-75
2021/03/07 13:21:59;;;;;;;10.63;9.63;;;;;;;;;;4973754;28;20466;-75
2021/03/07 13:24:25;;;;;;;9.13;8.43;;;;;;;;;;4974321;28;20422;-75
2021/03/07 13:26:51;;;;;;;10.10;9.30;;;;;;;;;;4974205;28;20458;-76
2021/03/07 13:29:17;;;;;;;9.70;8.90;;;;;;;;;;4974098;28;20434;-74
2021/03/07 13:31:43;;;;;;;10.23;9.33;;;;;;;;;;4974067;28;20410;-74
2021/03/07 13:34:09;;;;;;;9.93;9.03;;;;;;;;;;4973207;28;20505;-75
2021/03/07 13:36:35;;;;;;;10.13;9.33;;;;;;;;;;4973721;28;20453;-74
2021/03/07 13:39:02;;;;;;;9.97;9.10;;;;;;;;;;4974031;28;20925;-76
2021/03/07 13:41:27;;;;;;;9.93;8.93;;;;;;;;;;4974351;28;20944;-75
2021/03/07 13:43:53;;;;;;;10.77;9.87;;;;;;;;;;4974311;28;20514;-76
2021/03/07 13:46:19;;;;;;;10.07;9.27;;;;;;;;;;4973953;28;20430;-77
2021/03/07 13:48:45;;;;;;;10.87;9.87;;;;;;;;;;4974058;28;20473;-77
2021/03/07 13:51:12;;;;;;;10.67;9.70;;;;;;;;;;4973453;28;20463;-76
2021/03/07 13:53:38;;;;;;;10.43;9.53;;;;;;;;;;4956264;28;20435;-75
2021/03/07 13:56:05;;;;;;;10.53;9.60;;;;;;;;;;4973795;28;20453;-74
2021/03/07 13:58:31;;;;;;;10.93;10.03;;;;;;;;;;4973021;28;20554;-74
2021/03/07 14:00:57;;;;;;;11.23;10.10;;;;;;;;;;4973883;28;20518;-74
2021/03/07 14:03:23;;;;;;;10.10;9.20;;;;;;;;;;4974006;28;20447;-75
2021/03/07 14:05:49;;;;;;;10.50;9.50;;;;;;;;;;4973190;28;20778;-77
2021/03/07 14:08:15;;;;;;;10.83;9.77;;;;;;;;;;4973912;28;20568;-74
2021/03/07 14:10:41;;;;;;;11.37;10.27;;;;;;;;;;4973586;28;20423;-75
2021/03/07 14:13:07;;;;;;;10.10;8.87;;;;;;;;;;4973832;28;20462;-76
2021/03/07 14:15:33;;;;;;;10.83;9.83;;;;;;;;;;4973640;28;20415;-75
2021/03/07 14:17:59;;;;;;;11.20;10.03;;;;;;;;;;4973807;28;20431;-75
2021/03/07 14:20:25;;;;;;;10.27;9.40;;;;;;;;;;4973143;28;20988;-75
2021/03/07 14:22:51;;;;;;;10.10;9.20;;;;;;;;;;4973775;28;20457;-75
2021/03/07 14:25:17;;;;;;;10.60;9.43;;;;;;;;;;4974538;28;20465;-74
2021/03/07 14:27:43;;;;;;;10.10;9.10;;;;;;;;;;4974616;28;20831;-74
2021/03/07 14:30:11;;;;;;;10.27;9.37;;;;;;;;;;4974304;28;20439;-76
2021/03/07 14:32:37;;;;;;;10.73;9.73;;;;;;;;;;4973604;28;20442;-76
2021/03/07 14:35:04;;;;;;;10.30;9.50;;;;;;;;;;4973806;28;20438;-74
2021/03/07 14:37:30;;;;;;;10.73;9.63;;;;;;;;;;4976941;28;20529;-75
2021/03/07 14:39:56;;;;;;;11.77;10.67;;;;;;;;;;4976949;28;20901;-75
2021/03/07 14:42:22;;;;;;;10.43;9.53;;;;;;;;;;4977221;28;20430;-75
2021/03/07 14:44:48;;;;;;;10.23;9.33;;;;;;;;;;4976986;28;20422;-76
2021/03/07 14:47:14;;;;;;;11.07;10.07;;;;;;;;;;4976951;28;20461;-76
2021/03/07 14:49:40;;;;;;;11.67;9.73;;;;;;;;;;4976183;28;20442;-73
2021/03/07 14:52:06;;;;;;;10.70;9.70;;;;;;;;;;4976540;28;20438;-74
2021/03/07 14:54:32;;;;;;;11.00;10.00;;;;;;;;;;4977039;28;20446;-76
2021/03/07 14:56:58;;;;;;;11.33;9.80;;;;;;;;;;4977415;28;20756;-75
2021/03/07 14:59:25;;;;;;;9.97;8.97;;;;;;;;;;4977202;28;20917;-74
2021/03/07 15:01:51;;;;;;;10.33;9.33;;;;;;;;;;4976791;28;20512;-73
2021/03/07 15:04:17;;;;;;;9.57;8.57;;;;;;;;;;4976390;28;20450;-75
2021/03/07 15:06:43;;;;;;;11.30;10.10;;;;;;;;;;4976681;28;20805;-75
2021/03/07 15:09:09;;;;;;;15.83;9.70;;;;;;;;;;4980287;28;20442;-77
2021/03/07 15:11:37;;;;;;;10.37;9.27;;;;;;;;;;4982974;28;20427;-74
2021/03/07 15:14:03;;;;;;;10.93;9.87;;;;;;;;;;4982205;28;20442;-81
2021/03/07 15:16:29;;;;;;;12.43;10.10;;;;;;;;;;4982117;28;20920;-79
2021/03/07 15:18:55;;;;;;;11.80;10.17;;;;;;;;;;4980525;28;20482;-74
2021/03/07 15:21:21;;;;;;;11.53;10.33;;;;;;;;;;4981898;28;20450;-75
2021/03/07 15:23:47;;;;;;;11.33;10.17;;;;;;;;;;4983493;28;20883;-78